Time;durP1;ratioP1;P1;durP2;ratioP2;P2;SDS_P1;SDS_P2;PMS_P1;PMS_P2;Temp;Humidity;BMP_temperature;BMP_pressure;BME280_temperature;BME280_humidity;BME280_pressure;Samples;Min_cycle;Max_cycle;Signal;HPM_P1;HPM_P2
2022/03/05 00:02:17;;;;;;;22.48;7.35;;;2.90;99.90;;;;;;5022233;28;20021;-38
2022/03/05 00:04:43;;;;;;;21.50;6.63;;;2.80;99.90;;;;;;5032756;28;20060;-38
2022/03/05 00:07:09;;;;;;;16.58;6.63;;;2.80;99.90;;;;;;5027900;28;20140;-37
2022/03/05 00:09:34;;;;;;;20.15;8.27;;;2.70;99.90;;;;;;5032886;28;20033;-41
2022/03/05 00:14:44;;;;;;;23.58;8.27;;;2.80;99.90;;;;;;5032824;28;20087;-38
2022/03/05 00:17:11;;;;;;;19.30;7.85;;;2.70;99.90;;;;;;5032259;28;20021;-37
2022/03/05 00:19:36;;;;;;;25.20;8.38;;;2.70;99.90;;;;;;5021802;28;20400;-38
2022/03/05 00:22:02;;;;;;;17.55;7.25;;;2.70;99.90;;;;;;5032393;28;20026;-41
2022/03/05 00:24:28;;;;;;;20.65;7.55;;;2.70;99.90;;;;;;5031412;28;20079;-37
2022/03/05 00:26:54;;;;;;;20.33;8.02;;;2.70;99.90;;;;;;5027970;28;20057;-38
2022/03/05 00:29:20;;;;;;;18.67;6.82;;;2.60;99.90;;;;;;5032693;28;20022;-39
2022/03/05 00:31:46;;;;;;;25.20;7.70;;;2.60;99.90;;;;;;5021296;28;20084;-36
2022/03/05 00:34:11;;;;;;;23.52;8.35;;;2.50;99.90;;;;;;5014744;28;20022;-39
2022/03/05 00:36:38;;;;;;;19.73;8.18;;;2.40;99.90;;;;;;5017828;28;20164;-40
2022/03/05 00:39:04;;;;;;;24.55;7.43;;;2.40;99.90;;;;;;5013219;28;20045;-40
2022/03/05 00:41:30;;;;;;;24.63;9.00;;;2.40;99.90;;;;;;5017930;28;20029;-40
2022/03/05 00:43:55;;;;;;;20.00;6.57;;;2.40;99.90;;;;;;5029224;28;20056;-39
2022/03/05 00:46:21;;;;;;;15.93;7.22;;;2.40;99.90;;;;;;5024451;28;20028;-40
2022/03/05 00:48:46;;;;;;;20.13;8.23;;;2.40;99.90;;;;;;5035375;28;20492;-38
2022/03/05 00:51:12;;;;;;;22.90;7.47;;;2.30;99.90;;;;;;5033775;28;20014;-37
2022/03/05 00:53:38;;;;;;;17.58;6.70;;;2.30;99.90;;;;;;5021707;28;20125;-39
2022/03/05 00:56:04;;;;;;;25.08;7.93;;;2.30;99.90;;;;;;5033381;28;20163;-38
2022/03/05 00:58:30;;;;;;;22.38;8.45;;;2.30;99.90;;;;;;5026940;28;20034;-40
2022/03/05 01:00:55;;;;;;;24.75;8.15;;;2.30;99.90;;;;;;5023991;28;20064;-38
2022/03/05 01:03:22;;;;;;;18.92;8.05;;;2.20;99.90;;;;;;5021818;28;20473;-38
2022/03/05 01:05:48;;;;;;;23.10;8.85;;;2.20;99.90;;;;;;5030529;28;20032;-37
2022/03/05 01:08:13;;;;;;;26.48;8.38;;;2.20;99.90;;;;;;5019579;28;20401;-38
2022/03/05 01:10:39;;;;;;;20.77;7.75;;;2.20;99.90;;;;;;5022792;28;20039;-37
2022/03/05 01:13:05;;;;;;;22.52;8.00;;;2.20;99.90;;;;;;5027223;28;20021;-37
2022/03/05 01:15:30;;;;;;;23.35;8.32;;;2.10;99.90;;;;;;5027316;28;20020;-38
2022/03/05 01:17:57;;;;;;;18.13;7.13;;;2.10;99.90;;;;;;5026715;28;20025;-39
2022/03/05 01:20:23;;;;;;;21.42;9.02;;;2.00;99.90;;;;;;5028009;28;20402;-49
2022/03/05 01:22:48;;;;;;;27.90;8.57;;;2.00;99.90;;;;;;5034192;28;20028;-38
2022/03/05 01:25:14;;;;;;;20.20;8.18;;;2.00;99.90;;;;;;5032626;28;20022;-46
2022/03/05 01:27:40;;;;;;;20.42;7.20;;;1.90;99.90;;;;;;5030687;28;20056;-39
2022/03/05 01:30:06;;;;;;;24.83;8.50;;;2.00;99.90;;;;;;5035919;28;20144;-39
2022/03/05 01:32:31;;;;;;;21.02;7.78;;;2.00;99.90;;;;;;5029732;28;20026;-36
2022/03/05 01:34:57;;;;;;;20.63;6.80;;;1.90;99.90;;;;;;5028060;28;20029;-39
2022/03/05 01:37:23;;;;;;;23.73;8.75;;;1.80;99.90;;;;;;5035866;28;20025;-38
2022/03/05 01:39:48;;;;;;;17.85;7.18;;;1.80;99.90;;;;;;5024381;28;20032;-37
2022/03/05 01:42:19;;;;;;;22.73;8.60;;;1.70;99.90;;;;;;5019926;28;20033;-40
2022/03/05 01:44:44;;;;;;;21.02;7.65;;;1.70;99.90;;;;;;5019679;28;20026;-40
2022/03/05 01:47:10;;;;;;;22.38;7.95;;;1.70;99.90;;;;;;5035557;28;20029;-38
2022/03/05 01:49:36;;;;;;;22.13;7.97;;;1.70;99.90;;;;;;5035166;28;20485;-39
2022/03/05 01:52:02;;;;;;;23.00;7.88;;;1.70;99.90;;;;;;5015692;28;20053;-38
2022/03/05 01:54:27;;;;;;;32.03;8.90;;;1.70;99.90;;;;;;5015794;28;20026;-38
2022/03/05 01:56:55;;;;;;;22.40;7.78;;;1.60;99.90;;;;;;5018381;28;20092;-37
2022/03/05 01:59:20;;;;;;;18.97;7.50;;;1.50;99.90;;;;;;5035573;28;20040;-39
2022/03/05 02:01:46;;;;;;;19.65;7.13;;;1.50;99.90;;;;;;5017863;28;20410;-39
2022/03/05 02:04:12;;;;;;;23.77;8.60;;;1.40;99.90;;;;;;5015371;28;20033;-40
2022/03/05 02:06:37;;;;;;;27.65;9.05;;;1.30;99.90;;;;;;5015443;28;20132;-38
2022/03/05 02:09:03;;;;;;;17.73;7.22;;;1.20;99.90;;;;;;5015168;28;20045;-40
2022/03/05 02:11:29;;;;;;;25.80;8.10;;;1.20;99.90;;;;;;5034445;28;20087;-39
2022/03/05 02:13:55;;;;;;;19.63;7.15;;;1.20;99.90;;;;;;5035092;28;20044;-39
2022/03/05 02:16:21;;;;;;;19.45;7.03;;;1.20;99.90;;;;;;5035134;28;20367;-38
2022/03/05 02:18:48;;;;;;;17.95;7.15;;;1.20;99.90;;;;;;5019230;28;20076;-38
2022/03/05 02:21:15;;;;;;;21.83;8.23;;;1.10;99.90;;;;;;5022803;28;20033;-39
2022/03/05 02:23:40;;;;;;;19.63;8.27;;;1.10;99.90;;;;;;5019515;28;20109;-38
2022/03/05 02:26:06;;;;;;;18.95;7.78;;;1.20;99.90;;;;;;5015096;28;20127;-38
2022/03/05 02:28:33;;;;;;;24.52;8.20;;;1.10;99.90;;;;;;5034902;28;20021;-39
2022/03/05 02:30:59;;;;;;;22.02;6.88;;;1.10;99.90;;;;;;5032717;28;20600;-39
2022/03/05 02:33:25;;;;;;;19.90;7.32;;;1.10;99.90;;;;;;5033903;28;20094;-37
2022/03/05 02:35:50;;;;;;;19.00;7.35;;;1.10;99.90;;;;;;5034823;28;20490;-39
2022/03/05 02:38:19;;;;;;;21.45;8.40;;;1.10;99.90;;;;;;5025520;28;20022;-40
2022/03/05 02:40:46;;;;;;;20.42;7.45;;;1.00;99.90;;;;;;5031021;28;20469;-40
2022/03/05 02:43:12;;;;;;;27.60;8.80;;;0.90;99.90;;;;;;5034427;28;20029;-40
2022/03/05 02:45:38;;;;;;;19.85;7.82;;;0.90;99.90;;;;;;5031845;28;20026;-40
2022/03/05 02:48:07;;;;;;;22.10;7.22;;;0.80;99.90;;;;;;5029287;28;20079;-39
2022/03/05 02:50:33;;;;;;;24.27;8.30;;;0.80;99.90;;;;;;5024053;28;20092;-39
2022/03/05 02:52:59;;;;;;;20.40;7.78;;;0.80;99.90;;;;;;5023776;28;20021;-58
2022/03/05 02:55:27;;;;;;;23.02;8.00;;;0.80;99.90;;;;;;5023435;28;20022;-39
2022/03/05 02:57:53;;;;;;;22.42;7.43;;;0.70;99.90;;;;;;5028712;28;20098;-39
2022/03/05 03:00:19;;;;;;;20.95;7.47;;;0.70;99.90;;;;;;5034573;28;20022;-40
2022/03/05 03:02:45;;;;;;;19.00;7.35;;;0.70;99.90;;;;;;5032443;28;20109;-38
2022/03/05 03:05:12;;;;;;;20.05;7.97;;;0.70;99.90;;;;;;5024408;28;20026;-39
2022/03/05 03:07:38;;;;;;;21.23;8.30;;;0.70;99.90;;;;;;5014108;28;20119;-39
2022/03/05 03:10:06;;;;;;;16.77;7.57;;;0.60;99.90;;;;;;5013662;28;20026;-39
2022/03/05 03:12:31;;;;;;;20.48;6.70;;;0.60;99.90;;;;;;5016208;28;20490;-39
2022/03/05 03:14:57;;;;;;;25.33;8.05;;;0.60;99.90;;;;;;5029488;28;20021;-39
2022/03/05 03:17:23;;;;;;;22.92;7.82;;;0.60;99.90;;;;;;5014427;28;20029;-39
2022/03/05 03:19:49;;;;;;;25.48;8.93;;;0.60;99.90;;;;;;5025785;28;20025;-39
2022/03/05 03:22:14;;;;;;;22.08;8.05;;;0.60;99.90;;;;;;5026129;28;20052;-39
2022/03/05 03:24:41;;;;;;;22.92;8.50;;;0.60;99.90;;;;;;5022782;28;20025;-38
2022/03/05 03:27:07;;;;;;;26.60;7.85;;;0.60;99.90;;;;;;5016235;28;20046;-39
2022/03/05 03:29:33;;;;;;;24.88;9.15;;;0.60;99.90;;;;;;5029621;28;20025;-39
2022/03/05 03:31:59;;;;;;;20.02;8.23;;;0.60;99.90;;;;;;5014146;28;20076;-38
2022/03/05 03:34:24;;;;;;;21.63;7.78;;;0.50;99.90;;;;;;5015141;28;20018;-38
2022/03/05 03:36:50;;;;;;;24.52;8.40;;;0.60;99.90;;;;;;5023898;28;20022;-37
2022/03/05 03:39:16;;;;;;;23.77;8.75;;;0.50;99.90;;;;;;5014524;28;20037;-40
2022/03/05 03:41:42;;;;;;;21.65;7.72;;;0.50;99.90;;;;;;5014858;28;20034;-39
2022/03/05 03:44:08;;;;;;;20.25;7.95;;;0.60;99.90;;;;;;5013601;28;20030;-39
2022/03/05 03:46:53;;;;;;;24.15;7.68;;;0.60;99.90;;;;;;5024164;28;20124;-40
2022/03/05 03:49:18;;;;;;;32.45;8.68;;;0.70;99.90;;;;;;5029643;28;20026;-39
2022/03/05 03:51:44;;;;;;;25.88;7.82;;;0.60;99.90;;;;;;5025249;28;20029;-40
2022/03/05 03:54:10;;;;;;;24.85;8.10;;;0.60;99.90;;;;;;5028300;28;20022;-39
2022/03/05 03:56:35;;;;;;;22.77;7.82;;;0.50;99.90;;;;;;5029898;28;20037;-40
2022/03/05 03:59:01;;;;;;;25.73;7.30;;;0.50;99.90;;;;;;5029032;28;20034;-39
2022/03/05 04:01:26;;;;;;;15.57;7.05;;;0.60;99.90;;;;;;5032189;28;20029;-39
2022/03/05 04:03:52;;;;;;;26.38;8.60;;;0.60;99.90;;;;;;5030787;28;20036;-39
2022/03/05 04:06:18;;;;;;;26.58;8.20;;;0.50;99.90;;;;;;5016344;28;20041;-39
2022/03/05 04:08:43;;;;;;;22.40;7.95;;;0.40;99.90;;;;;;5020546;28;20038;-39
2022/03/05 04:11:15;;;;;;;27.80;8.15;;;0.30;99.90;;;;;;5029946;28;20048;-39
2022/03/05 04:13:43;;;;;;;28.10;7.53;;;0.30;99.90;;;;;;5033183;28;20029;-39
2022/03/05 04:16:09;;;;;;;23.95;7.40;;;0.20;99.90;;;;;;5032214;28;20045;-39
2022/03/05 04:18:35;;;;;;;27.05;8.52;;;0.10;99.90;;;;;;5032733;28;20033;-38
2022/03/05 04:21:01;;;;;;;28.70;7.43;;;0.20;99.90;;;;;;5031238;28;20033;-39
2022/03/05 04:23:27;;;;;;;27.10;8.57;;;0.10;99.90;;;;;;5032770;28;20060;-39
2022/03/05 04:25:53;;;;;;;21.90;7.38;;;0.20;99.90;;;;;;5018689;28;20030;-39
2022/03/05 04:28:18;;;;;;;26.05;8.15;;;0.10;99.90;;;;;;5030587;28;20041;-40
2022/03/05 04:30:44;;;;;;;28.50;9.27;;;0.10;99.90;;;;;;5021369;28;20033;-47
2022/03/05 04:33:10;;;;;;;24.88;8.70;;;0.30;99.90;;;;;;5027400;28;20045;-39
2022/03/05 04:35:36;;;;;;;30.65;8.93;;;0.40;99.90;;;;;;5028864;28;20506;-39
2022/03/05 04:38:02;;;;;;;26.35;8.32;;;0.30;99.90;;;;;;5024736;28;20050;-39
2022/03/05 04:40:28;;;;;;;24.95;9.27;;;0.20;99.90;;;;;;5029072;28;20060;-37
2022/03/05 04:42:54;;;;;;;28.50;8.10;;;0.20;99.90;;;;;;5024398;28;20025;-37
2022/03/05 04:45:19;;;;;;;27.50;8.48;;;0.20;99.90;;;;;;5029594;28;20401;-38
2022/03/05 04:47:45;;;;;;;25.30;8.93;;;0.30;99.90;;;;;;5022007;28;20065;-39
2022/03/05 04:50:10;;;;;;;28.13;9.05;;;0.30;99.90;;;;;;5023467;28;20025;-38
2022/03/05 04:52:37;;;;;;;26.75;8.23;;;0.30;99.90;;;;;;5032030;28;20040;-39
2022/03/05 04:55:04;;;;;;;28.70;9.70;;;0.30;99.90;;;;;;5028718;28;20071;-37
2022/03/05 04:57:29;;;;;;;23.20;7.90;;;0.20;99.90;;;;;;5014887;28;20489;-38
2022/03/05 04:59:55;;;;;;;21.13;7.63;;;0.20;99.90;;;;;;5029154;28;20037;-38
2022/03/05 05:02:21;;;;;;;27.35;9.27;;;0.20;99.90;;;;;;5023500;28;20030;-39
2022/03/05 05:04:46;;;;;;;26.33;9.05;;;0.10;99.90;;;;;;5012681;28;20033;-38
2022/03/05 05:07:12;;;;;;;23.10;8.65;;;0.10;99.90;;;;;;5016568;28;20034;-38
2022/03/05 05:09:40;;;;;;;24.08;9.10;;;0.10;99.90;;;;;;5021413;28;20044;-38
2022/03/05 05:12:06;;;;;;;16.65;6.47;;;0.00;99.90;;;;;;5031130;28;20014;-38
2022/03/05 05:14:31;;;;;;;32.40;9.00;;;0.00;99.90;;;;;;5023160;28;20022;-40
2022/03/05 05:16:57;;;;;;;32.60;9.52;;;0.00;99.90;;;;;;5028006;28;20033;-39
2022/03/05 05:19:27;;;;;;;23.55;8.27;;;0.00;99.90;;;;;;5029011;28;20026;-37
2022/03/05 05:21:56;;;;;;;27.30;8.68;;;-0.10;99.90;;;;;;5019308;28;20026;-36
2022/03/05 05:24:26;;;;;;;30.83;8.80;;;-0.10;99.90;;;;;;5031943;28;20029;-38
2022/03/05 05:26:53;;;;;;;39.15;10.02;;;0.00;99.90;;;;;;5027299;28;20115;-38
2022/03/05 05:29:19;;;;;;;30.77;9.57;;;0.00;99.90;;;;;;5029837;28;20037;-38
2022/03/05 05:31:44;;;;;;;26.27;8.95;;;-0.10;99.90;;;;;;5013535;28;20018;-39
2022/03/05 05:34:10;;;;;;;24.10;9.02;;;-0.10;99.90;;;;;;5019940;28;20026;-36
2022/03/05 05:36:39;;;;;;;40.60;9.68;;;-0.10;99.90;;;;;;5016853;28;20057;-38
2022/03/05 05:39:06;;;;;;;37.75;9.32;;;-0.10;99.90;;;;;;5035043;28;20026;-38
2022/03/05 05:41:32;;;;;;;32.03;10.10;;;-0.10;99.90;;;;;;5034111;28;20030;-39
2022/03/05 05:43:58;;;;;;;30.23;10.00;;;-0.20;99.90;;;;;;5033824;28;20141;-39
2022/03/05 05:46:24;;;;;;;25.73;8.85;;;-0.20;99.90;;;;;;5017475;28;20109;-38
2022/03/05 05:48:49;;;;;;;24.52;9.07;;;-0.20;99.90;;;;;;5034257;28;20018;-39
2022/03/05 05:51:15;;;;;;;29.40;9.77;;;-0.20;99.90;;;;;;5034873;28;20029;-40
2022/03/05 05:53:41;;;;;;;32.45;9.05;;;-0.20;99.90;;;;;;5035720;28;20478;-38
2022/03/05 05:56:08;;;;;;;32.22;9.95;;;-0.20;99.90;;;;;;5033528;28;20029;-37
2022/03/05 05:58:33;;;;;;;32.30;9.45;;;-0.20;99.90;;;;;;5029359;28;20413;-38
2022/03/05 06:00:59;;;;;;;28.73;10.07;;;-0.20;99.90;;;;;;5032097;28;20039;-39
2022/03/05 06:03:24;;;;;;;34.90;10.57;;;-0.10;99.90;;;;;;5014154;28;20096;-38
2022/03/05 06:05:50;;;;;;;30.67;10.32;;;-0.10;99.90;;;;;;5017108;28;20026;-65
2022/03/05 06:08:15;;;;;;;35.17;9.38;;;-0.10;99.90;;;;;;5017813;28;20073;-39
2022/03/05 06:10:41;;;;;;;27.85;8.35;;;-0.20;99.90;;;;;;5030474;28;20037;-39
2022/03/05 06:13:07;;;;;;;27.08;9.57;;;-0.20;99.90;;;;;;5015533;28;20029;-38
2022/03/05 06:15:32;;;;;;;28.33;10.52;;;-0.20;99.90;;;;;;5028089;28;20497;-40
2022/03/05 06:17:58;;;;;;;33.15;9.90;;;-0.20;99.90;;;;;;5020362;28;20033;-37
2022/03/05 06:20:24;;;;;;;33.88;9.73;;;-0.20;99.90;;;;;;5035162;28;20030;-39
2022/03/05 06:22:49;;;;;;;33.25;10.02;;;-0.20;99.90;;;;;;5029119;28;20029;-37
2022/03/05 06:25:17;;;;;;;32.38;9.52;;;-0.20;99.90;;;;;;5018227;28;20057;-40
2022/03/05 06:27:44;;;;;;;35.92;9.90;;;-0.20;99.90;;;;;;5026098;28;20040;-39
2022/03/05 06:30:11;;;;;;;24.85;9.07;;;-0.30;99.90;;;;;;5033918;28;20030;-39
2022/03/05 06:32:36;;;;;;;29.90;9.65;;;-0.20;99.90;;;;;;5034313;28;20026;-38
2022/03/05 06:35:05;;;;;;;26.33;9.20;;;-0.20;99.90;;;;;;5033505;28;20563;-38
2022/03/05 06:37:30;;;;;;;36.58;9.07;;;-0.10;99.90;;;;;;5034717;28;20605;-38
2022/03/05 06:39:56;;;;;;;32.53;9.63;;;-0.10;99.90;;;;;;5034639;28;20113;-40
2022/03/05 06:42:22;;;;;;;30.42;9.98;;;-0.10;99.90;;;;;;5019941;28;20125;-37
2022/03/05 06:44:47;;;;;;;32.55;9.85;;;-0.10;99.90;;;;;;5014258;28;20029;-36
2022/03/05 06:47:13;;;;;;;35.75;10.77;;;0.00;99.90;;;;;;5026816;28;20384;-35
2022/03/05 06:49:38;;;;;;;23.65;8.70;;;0.10;99.90;;;;;;5033276;28;20068;-42
2022/03/05 06:52:04;;;;;;;35.67;11.25;;;0.10;99.90;;;;;;5034153;28;20029;-47
2022/03/05 06:54:30;;;;;;;36.33;10.23;;;0.20;99.90;;;;;;5024080;28;20052;-37
2022/03/05 06:56:55;;;;;;;34.38;10.60;;;0.20;99.90;;;;;;5034264;28;20039;-36
2022/03/05 06:59:21;;;;;;;36.92;10.88;;;0.20;99.90;;;;;;5034017;28;20021;-38
2022/03/05 07:01:46;;;;;;;35.45;10.32;;;0.30;99.90;;;;;;5033850;28;20390;-37
2022/03/05 07:04:12;;;;;;;27.85;10.27;;;0.40;99.90;;;;;;5033571;28;20029;-36
2022/03/05 07:06:38;;;;;;;27.17;8.82;;;0.40;99.90;;;;;;5033907;28;20029;-36
2022/03/05 07:09:04;;;;;;;28.67;10.98;;;0.50;99.90;;;;;;5033508;28;20057;-38
2022/03/05 07:11:31;;;;;;;35.78;10.15;;;0.60;99.90;;;;;;5033785;28;20036;-37
2022/03/05 07:13:56;;;;;;;37.03;10.35;;;0.60;99.90;;;;;;5024001;28;20025;-36
2022/03/05 07:16:22;;;;;;;32.17;10.88;;;0.60;99.90;;;;;;5021837;28;20033;-36
2022/03/05 07:18:47;;;;;;;36.67;10.73;;;0.50;99.90;;;;;;5033614;28;20039;-35
2022/03/05 07:21:13;;;;;;;35.75;10.73;;;0.60;99.90;;;;;;5032983;28;20095;-38
2022/03/05 07:23:39;;;;;;;34.47;10.75;;;0.70;99.90;;;;;;5032110;28;20053;-39
2022/03/05 07:26:05;;;;;;;41.00;10.77;;;0.70;99.90;;;;;;5032084;28;20037;-37
2022/03/05 07:28:30;;;;;;;28.83;9.77;;;0.70;99.90;;;;;;5032565;28;20025;-38
2022/03/05 07:30:56;;;;;;;30.45;9.93;;;0.80;99.90;;;;;;5028556;28;20096;-36
2022/03/05 07:33:22;;;;;;;35.85;10.63;;;0.90;99.90;;;;;;5020875;28;20442;-38
2022/03/05 07:35:48;;;;;;;31.42;10.10;;;0.90;99.90;;;;;;5031365;28;20397;-48
2022/03/05 07:38:14;;;;;;;33.20;11.38;;;0.90;99.90;;;;;;5029282;28;20018;-37
2022/03/05 07:40:39;;;;;;;31.30;10.88;;;1.00;99.90;;;;;;5014654;28;20364;-38
2022/03/05 07:43:05;;;;;;;37.10;11.43;;;1.10;99.90;;;;;;5017038;28;20018;-38
2022/03/05 07:45:31;;;;;;;33.53;9.75;;;1.20;99.90;;;;;;5017767;28;20057;-38
2022/03/05 07:47:56;;;;;;;41.63;12.90;;;1.30;99.90;;;;;;5013834;28;20486;-36
2022/03/05 07:50:22;;;;;;;33.03;9.88;;;1.40;99.90;;;;;;5032593;28;20105;-38
2022/03/05 07:52:48;;;;;;;39.53;10.90;;;1.40;99.90;;;;;;5020268;28;20108;-37
2022/03/05 07:55:14;;;;;;;32.85;10.95;;;1.40;99.90;;;;;;5028684;28;20055;-37
2022/03/05 07:57:40;;;;;;;32.88;11.52;;;1.50;99.90;;;;;;5018844;28;20041;-37
2022/03/05 08:00:06;;;;;;;38.22;11.95;;;1.50;99.90;;;;;;5024800;28;20029;-37
2022/03/05 08:02:32;;;;;;;27.88;10.00;;;1.60;99.90;;;;;;5027216;28;20508;-38
2022/03/05 08:04:58;;;;;;;29.88;9.90;;;1.60;99.90;;;;;;5030923;28;20038;-37
2022/03/05 08:07:24;;;;;;;40.35;12.63;;;1.80;99.90;;;;;;5026647;28;20482;-36
2022/03/05 08:09:50;;;;;;;32.10;11.13;;;2.00;99.90;;;;;;5023844;28;20029;-37
2022/03/05 08:12:15;;;;;;;49.17;11.70;;;2.10;99.90;;;;;;5019331;28;20087;-37
2022/03/05 08:14:42;;;;;;;30.90;11.77;;;2.10;99.90;;;;;;5024228;28;20075;-38
2022/03/05 08:17:08;;;;;;;32.55;11.27;;;2.20;99.90;;;;;;5030896;28;20470;-37
2022/03/05 08:19:34;;;;;;;35.35;11.45;;;2.20;99.90;;;;;;5028120;28;20093;-44
2022/03/05 08:21:59;;;;;;;38.50;11.25;;;2.40;99.90;;;;;;5030933;28;20036;-36
2022/03/05 08:24:25;;;;;;;38.05;11.52;;;2.50;99.90;;;;;;5028670;28;20041;-36
2022/03/05 08:26:50;;;;;;;35.00;11.73;;;2.70;99.90;;;;;;5013044;28;20500;-35
2022/03/05 08:29:16;;;;;;;33.60;11.27;;;2.80;99.90;;;;;;5024698;28;20025;-38
2022/03/05 08:31:42;;;;;;;32.58;10.45;;;2.90;99.90;;;;;;5031760;28;20048;-36
2022/03/05 08:34:07;;;;;;;35.72;11.32;;;3.00;99.90;;;;;;5030952;28;20018;-36
2022/03/05 08:36:33;;;;;;;30.92;10.85;;;3.10;99.90;;;;;;5032301;28;20116;-37
2022/03/05 08:38:59;;;;;;;34.25;11.88;;;3.10;99.90;;;;;;5024733;28;20390;-37
2022/03/05 08:41:25;;;;;;;33.47;11.05;;;3.20;99.90;;;;;;5019561;28;20113;-40
2022/03/05 08:43:52;;;;;;;38.90;12.50;;;3.20;99.90;;;;;;5013065;28;20037;-38
2022/03/05 08:46:18;;;;;;;37.80;12.50;;;3.40;99.90;;;;;;5019038;28;20037;-38
2022/03/05 08:48:44;;;;;;;37.45;11.52;;;3.50;99.90;;;;;;5024861;28;20050;-36
2022/03/05 08:51:10;;;;;;;38.97;12.63;;;3.50;99.90;;;;;;5018742;28;20048;-36
2022/03/05 08:53:35;;;;;;;34.05;10.52;;;3.60;99.90;;;;;;5015632;28;20034;-37
2022/03/05 08:56:01;;;;;;;38.95;11.43;;;3.50;99.90;;;;;;5025976;28;20025;-39
2022/03/05 08:58:27;;;;;;;44.67;11.25;;;3.60;99.90;;;;;;5020917;28;20056;-38
2022/03/05 09:00:53;;;;;;;32.63;12.35;;;3.70;99.90;;;;;;5026012;28;20026;-37
2022/03/05 09:03:19;;;;;;;34.95;11.05;;;3.70;99.90;;;;;;5019078;28;20032;-41
2022/03/05 09:05:46;;;;;;;35.35;12.57;;;3.80;99.90;;;;;;5013683;28;20052;-38
2022/03/05 09:08:12;;;;;;;36.67;11.52;;;3.80;99.90;;;;;;5015706;28;20044;-37
2022/03/05 09:10:38;;;;;;;41.65;13.23;;;4.00;99.90;;;;;;5030165;28;20024;-38
2022/03/05 09:13:04;;;;;;;33.38;11.20;;;4.10;99.90;;;;;;5028593;28;20030;-36
2022/03/05 09:15:30;;;;;;;39.75;11.88;;;4.10;99.90;;;;;;5034257;28;20021;-37
2022/03/05 09:17:55;;;;;;;49.42;13.77;;;4.20;99.90;;;;;;5033242;28;20055;-37
2022/03/05 09:20:21;;;;;;;37.97;12.07;;;4.40;99.90;;;;;;5031986;28;20025;-38
2022/03/05 09:22:47;;;;;;;42.10;11.45;;;4.40;99.90;;;;;;5032403;28;20057;-37
2022/03/05 09:25:13;;;;;;;41.95;12.60;;;4.40;99.90;;;;;;5024509;28;20052;-37
2022/03/05 09:27:39;;;;;;;40.47;13.02;;;4.40;99.90;;;;;;5029006;28;20037;-45
2022/03/05 09:30:06;;;;;;;35.40;11.73;;;4.40;99.90;;;;;;5026682;28;20486;-38
2022/03/05 09:32:32;;;;;;;37.85;11.73;;;4.50;99.90;;;;;;5023303;28;20024;-36
2022/03/05 09:34:59;;;;;;;35.22;11.88;;;4.70;99.90;;;;;;5016394;28;20093;-38
2022/03/05 09:37:28;;;;;;;45.17;14.73;;;4.80;99.90;;;;;;5033965;28;20026;-36
2022/03/05 09:39:54;;;;;;;32.58;12.07;;;4.90;99.90;;;;;;5033848;28;20022;-38
2022/03/05 09:42:19;;;;;;;42.33;12.70;;;5.00;99.90;;;;;;5033635;28;20025;-39
2022/03/05 09:44:45;;;;;;;37.13;11.93;;;5.00;99.90;;;;;;5020873;28;20029;-36
2022/03/05 09:47:11;;;;;;;31.98;11.90;;;5.00;99.90;;;;;;5016381;28;20040;-38
2022/03/05 09:49:38;;;;;;;34.13;12.30;;;5.00;99.90;;;;;;5016362;28;20378;-43
2022/03/05 09:52:05;;;;;;;37.77;13.03;;;5.10;99.90;;;;;;5021361;28;20018;-36
2022/03/05 09:54:31;;;;;;;41.60;13.77;;;5.10;99.90;;;;;;5034896;28;20034;-37
2022/03/05 09:56:57;;;;;;;40.17;15.18;;;5.20;99.90;;;;;;5032935;28;20174;-36
2022/03/05 09:59:22;;;;;;;41.78;12.60;;;5.30;99.90;;;;;;5025257;28;20034;-37
2022/03/05 10:01:50;;;;;;;32.67;12.95;;;5.40;99.90;;;;;;5024502;28;20041;-37
2022/03/05 10:04:21;;;;;;;33.35;12.68;;;5.40;99.90;;;;;;5021416;28;20024;-37
2022/03/05 10:07:10;;;;;;;35.67;13.20;;;5.60;99.90;;;;;;5033206;28;20059;-37
2022/03/05 10:09:36;;;;;;;28.42;11.20;;;5.70;99.90;;;;;;5034993;28;20052;-37
2022/03/05 10:12:23;;;;;;;41.53;12.88;;;5.70;99.90;;;;;;5035147;28;20080;-36
2022/03/05 10:15:08;;;;;;;39.17;12.52;;;5.80;99.90;;;;;;5030624;28;20018;-35
2022/03/05 10:18:00;;;;;;;43.40;13.10;;;6.00;99.90;;;;;;5014709;28;20060;-38
2022/03/05 10:20:28;;;;;;;40.47;12.45;;;6.10;99.90;;;;;;5015068;28;20328;-57
2022/03/05 10:22:56;;;;;;;36.72;13.05;;;6.10;99.90;;;;;;5015199;28;20101;-38
2022/03/05 10:25:29;;;;;;;33.72;11.77;;;6.10;99.90;;;;;;5015500;28;20466;-38
2022/03/05 10:28:10;;;;;;;43.50;13.02;;;6.20;99.90;;;;;;5014968;28;20030;-37
2022/03/05 10:30:42;;;;;;;36.03;12.02;;;6.30;99.90;;;;;;5015826;28;20360;-39
2022/03/05 10:33:08;;;;;;;38.10;12.88;;;6.40;99.90;;;;;;5015077;28;20030;-37
2022/03/05 10:35:35;;;;;;;34.38;12.82;;;6.40;99.90;;;;;;5015326;28;20541;-38
2022/03/05 10:38:01;;;;;;;30.92;12.52;;;6.50;99.90;;;;;;5015108;28;20032;-37
2022/03/05 10:40:28;;;;;;;44.15;14.60;;;6.60;99.90;;;;;;5014960;28;20402;-39
2022/03/05 10:42:57;;;;;;;38.42;13.38;;;6.70;99.90;;;;;;5014853;28;20037;-38
2022/03/05 10:45:23;;;;;;;35.10;12.35;;;6.80;99.90;;;;;;5014808;28;20030;-38
2022/03/05 10:47:49;;;;;;;42.80;13.50;;;6.90;99.90;;;;;;5015175;28;20056;-38
2022/03/05 10:50:25;;;;;;;38.58;12.57;;;7.00;99.90;;;;;;5014971;28;20091;-38
2022/03/05 10:52:53;;;;;;;38.95;12.80;;;7.10;99.90;;;;;;5017030;28;20034;-38
2022/03/05 10:55:24;;;;;;;34.13;12.52;;;7.10;99.90;;;;;;5034308;28;20140;-37
2022/03/05 10:57:57;;;;;;;36.70;12.98;;;7.20;99.90;;;;;;5033044;28;20104;-39
2022/03/05 11:00:22;;;;;;;37.25;13.23;;;7.40;99.90;;;;;;5032536;28;20044;-38
2022/03/05 11:02:50;;;;;;;37.58;13.38;;;7.50;99.90;;;;;;5034307;28;20033;-38
2022/03/05 11:05:18;;;;;;;33.88;13.32;;;7.70;99.90;;;;;;5021690;28;20034;-38
2022/03/05 11:07:43;;;;;;;33.40;13.52;;;7.70;99.90;;;;;;5014186;28;20041;-39
2022/03/05 11:10:10;;;;;;;35.08;13.35;;;7.80;99.90;;;;;;5014281;28;20022;-39
2022/03/05 11:12:39;;;;;;;41.65;14.55;;;7.90;99.90;;;;;;5014299;28;20136;-38
2022/03/05 11:15:11;;;;;;;32.67;12.90;;;8.00;99.90;;;;;;5014497;28;20026;-38
2022/03/05 11:17:38;;;;;;;39.50;12.32;;;8.10;99.90;;;;;;5029304;28;20034;-38
2022/03/05 11:20:04;;;;;;;39.40;14.27;;;8.20;99.90;;;;;;5033927;28;20494;-39
2022/03/05 11:22:31;;;;;;;39.25;13.65;;;8.30;99.90;;;;;;5021541;28;20033;-38
2022/03/05 11:24:57;;;;;;;33.05;13.15;;;8.40;99.90;;;;;;5032772;28;20034;-44
2022/03/05 11:27:23;;;;;;;37.75;13.60;;;8.50;99.90;;;;;;5030922;28;20088;-52
2022/03/05 11:29:55;;;;;;;38.35;13.82;;;8.50;99.90;;;;;;5025552;28;20022;-40
2022/03/05 11:32:21;;;;;;;40.28;14.23;;;8.60;99.90;;;;;;5030371;28;20098;-34
2022/03/05 11:34:49;;;;;;;38.63;12.82;;;8.60;99.90;;;;;;5026742;28;20037;-38
2022/03/05 11:37:22;;;;;;;;;;;8.60;99.90;;;;;;5025826;28;20034;-38
2022/03/05 11:39:48;;;;;;;34.05;13.38;;;8.70;99.90;;;;;;5024844;28;20324;-38
2022/03/05 11:42:30;;;;;;;38.58;13.43;;;8.80;99.50;;;;;;5025926;28;20037;-38
2022/03/05 11:44:56;;;;;;;34.40;12.82;;;8.70;99.50;;;;;;5025190;28;20485;-39
2022/03/05 11:47:26;;;;;;;35.20;12.75;;;8.70;99.50;;;;;;5025191;28;20044;-34
2022/03/05 11:50:00;;;;;;;36.88;14.30;;;8.80;99.50;;;;;;5024428;28;20699;-38
2022/03/05 11:52:41;;;;;;;38.13;13.15;;;9.00;99.70;;;;;;5024614;28;20029;-37
2022/03/05 11:55:14;;;;;;;34.13;13.32;;;9.20;98.80;;;;;;5025358;28;20079;-38
2022/03/05 11:57:52;;;;;;;34.70;12.77;;;9.30;98.90;;;;;;5025466;28;20061;-38
2022/03/05 12:00:29;;;;;;;32.83;13.18;;;9.50;98.50;;;;;;5023454;28;20029;-37
2022/03/05 12:02:57;;;;;;;36.53;12.67;;;9.50;99.00;;;;;;5024331;28;20029;-39
2022/03/05 12:05:38;;;;;;;40.13;14.60;;;9.50;99.60;;;;;;5023558;28;20033;-36
2022/03/05 12:08:32;;;;;;;34.30;14.18;;;9.60;98.80;;;;;;5023582;28;20134;-38
2022/03/05 12:11:08;;;;;;;35.90;14.27;;;9.60;98.50;;;;;;5026152;28;20473;-38
2022/03/05 12:13:40;;;;;;;35.90;13.68;;;9.60;98.40;;;;;;5025448;28;20514;-38
2022/03/05 12:16:20;;;;;;;30.70;13.13;;;9.70;98.40;;;;;;5026011;28;20465;-38
2022/03/05 12:18:46;;;;;;;37.38;13.30;;;9.60;98.70;;;;;;5023647;28;20029;-34
2022/03/05 12:21:12;;;;;;;44.42;13.98;;;9.60;98.10;;;;;;5029070;28;20482;-38
2022/03/05 12:23:38;;;;;;;35.60;13.38;;;9.70;98.30;;;;;;5026211;28;20029;-38
2022/03/05 12:26:05;;;;;;;35.47;13.98;;;9.60;98.50;;;;;;5020972;28;20021;-38
2022/03/05 12:28:58;;;;;;;39.45;14.32;;;9.60;98.20;;;;;;5032427;28;20025;-40
2022/03/05 12:31:23;;;;;;;41.00;14.70;;;9.50;98.40;;;;;;5014428;28;20038;-37
2022/03/05 12:33:49;;;;;;;42.45;14.23;;;9.70;98.20;;;;;;5025148;28;20025;-41
2022/03/05 12:36:18;;;;;;;33.83;13.20;;;9.90;97.70;;;;;;5024206;28;20056;-39
2022/03/05 12:38:53;;;;;;;35.40;13.80;;;10.00;97.30;;;;;;5023072;28;20080;-39
2022/03/05 12:41:19;;;;;;;34.80;12.55;;;10.10;97.40;;;;;;5023876;28;20025;-40
2022/03/05 12:43:44;;;;;;;36.70;13.35;;;10.00;97.80;;;;;;5023605;28;20029;-36